createdAt,value
2018-03-22T00:02:07.217Z,68.30
2018-03-22T00:04:34.303Z,69.30
2018-03-22T00:09:41.170Z,71.10
2018-03-22T00:12:08.291Z,70.00
2018-03-22T00:14:35.330Z,68.50
2018-03-22T00:17:02.746Z,67.50
2018-03-22T00:19:29.407Z,65.40
2018-03-22T00:21:56.427Z,68.70
2018-03-22T00:24:24.460Z,70.40
2018-03-22T00:26:52.438Z,72.40
2018-03-22T00:29:19.468Z,72.20
2018-03-22T00:31:47.296Z,74.80
2018-03-22T00:34:14.311Z,76.00
2018-03-22T00:36:41.986Z,75.00
2018-03-22T00:39:08.397Z,75.40
2018-03-22T00:41:35.421Z,75.30
2018-03-22T00:44:02.434Z,75.60
2018-03-22T00:46:29.511Z,77.50
2018-03-22T00:48:56.529Z,78.70
2018-03-22T00:53:50.955Z,79.60
2018-03-22T00:56:17.967Z,79.70
2018-03-22T01:01:14.201Z,79.60
2018-03-22T01:03:41.225Z,79.10
2018-03-22T01:06:08.240Z,78.60
2018-03-22T01:08:35.292Z,78.90
2018-03-22T01:11:02.308Z,79.20
2018-03-22T01:13:29.327Z,79.50
2018-03-22T01:15:56.441Z,78.90
2018-03-22T01:18:23.516Z,78.40
2018-03-22T01:20:54.326Z,78.90
2018-03-22T01:23:22.131Z,78.00
2018-03-22T01:28:16.272Z,77.50
2018-03-22T01:30:43.319Z,77.00
2018-03-22T01:33:10.338Z,76.40
2018-03-22T01:38:15.881Z,75.10
2018-03-22T01:40:42.895Z,73.40
2018-03-22T01:43:09.913Z,69.70
2018-03-22T01:45:36.978Z,68.30
2018-03-22T01:48:04.078Z,73.00
2018-03-22T01:50:31.012Z,70.20
2018-03-22T01:53:11.894Z,70.00
2018-03-22T01:55:39.195Z,71.00
2018-03-22T01:58:06.887Z,69.80
2018-03-22T02:00:33.931Z,68.80
2018-03-22T02:03:00.945Z,68.00
2018-03-22T02:05:27.969Z,66.80
2018-03-22T02:07:55.015Z,66.20
2018-03-22T02:10:22.035Z,67.60
2018-03-22T02:12:49.223Z,69.20
2018-03-22T02:15:16.434Z,71.00
2018-03-22T02:17:43.116Z,70.60
2018-03-22T02:20:10.139Z,68.50
2018-03-22T02:22:37.212Z,70.30
2018-03-22T02:25:04.213Z,72.40
2018-03-22T02:27:31.236Z,74.10
2018-03-22T02:30:03.643Z,75.60
2018-03-22T02:32:30.651Z,70.80
2018-03-22T02:35:01.161Z,67.90
2018-03-22T02:37:28.180Z,71.00
2018-03-22T02:39:55.952Z,69.40
2018-03-22T02:42:23.009Z,68.60
2018-03-22T02:44:50.956Z,67.80
2018-03-22T02:47:17.963Z,67.20
2018-03-22T02:49:45.033Z,66.30
2018-03-22T02:52:12.051Z,65.70
2018-03-22T02:57:07.150Z,65.80
2018-03-22T02:59:34.164Z,66.70
2018-03-22T03:04:39.709Z,66.60
2018-03-22T03:07:06.796Z,66.20
2018-03-22T03:09:33.762Z,64.80
2018-03-22T03:16:55.013Z,61.60
2018-03-22T03:19:25.115Z,61.70
2018-03-22T03:24:20.310Z,63.00
2018-03-22T03:26:47.682Z,62.60
2018-03-22T03:29:14.697Z,63.10
2018-03-22T03:31:41.719Z,63.40
2018-03-22T03:34:08.832Z,64.00
2018-03-22T03:36:36.646Z,64.90
2018-03-22T03:39:03.602Z,64.80
2018-03-22T03:41:30.721Z,64.90
2018-03-22T03:43:57.686Z,65.60
2018-03-22T03:46:24.692Z,65.50
2018-03-22T03:48:51.749Z,65.20
2018-03-22T03:51:18.749Z,64.30
2018-03-22T03:53:45.772Z,64.20
2018-03-22T03:56:12.852Z,64.80
2018-03-22T03:58:40.220Z,64.60
2018-03-22T04:01:07.216Z,64.20
2018-03-22T04:03:35.049Z,64.60
2018-03-22T04:06:02.074Z,64.30
2018-03-22T04:08:29.081Z,64.20
2018-03-22T04:10:56.951Z,63.30
2018-03-22T04:13:24.902Z,63.40
2018-03-22T04:15:51.914Z,64.10
2018-03-22T04:18:19.804Z,64.50
2018-03-22T04:20:46.808Z,65.10
2018-03-22T04:25:52.368Z,66.50
2018-03-22T04:28:19.375Z,67.60
2018-03-22T04:30:46.388Z,66.70
2018-03-22T04:33:13.434Z,66.50
2018-03-22T04:35:40.485Z,66.30
2018-03-22T04:38:07.472Z,66.80
2018-03-22T04:40:34.541Z,67.10
2018-03-22T04:45:28.659Z,65.80
2018-03-22T04:47:55.719Z,66.40
2018-03-22T04:50:22.734Z,66.10
2018-03-22T04:52:50.575Z,65.90
2018-03-22T04:57:45.069Z,65.00
2018-03-22T05:00:12.085Z,64.50
2018-03-22T05:02:40.112Z,64.40
2018-03-22T05:05:08.062Z,64.00
2018-03-22T05:07:35.078Z,64.60
2018-03-22T05:10:02.131Z,64.30
2018-03-22T05:12:29.146Z,64.10
2018-03-22T05:14:57.001Z,63.90
2018-03-22T05:17:24.070Z,64.50
2018-03-22T05:19:51.086Z,65.00
2018-03-22T05:22:18.109Z,63.90
2018-03-22T05:24:45.166Z,64.30
2018-03-22T05:27:12.232Z,63.90
2018-03-22T05:29:39.257Z,64.00
2018-03-22T05:32:07.136Z,64.00
2018-03-22T05:34:39.442Z,64.30
2018-03-22T05:37:08.063Z,64.70
2018-03-22T05:39:35.512Z,65.00
2018-03-22T05:42:02.526Z,65.30
2018-03-22T05:47:08.081Z,65.80
2018-03-22T05:49:36.087Z,65.90
2018-03-22T05:52:03.119Z,65.00
2018-03-22T05:54:30.208Z,64.30
2018-03-22T05:56:57.231Z,63.60
2018-03-22T05:59:24.262Z,63.70
2018-03-22T06:01:51.344Z,63.40
2018-03-22T06:04:18.369Z,63.80
2018-03-22T06:06:45.400Z,61.30
2018-03-22T06:09:12.527Z,61.30
2018-03-22T06:11:39.759Z,60.30
2018-03-22T06:14:06.774Z,60.50
2018-03-22T06:16:34.856Z,61.90
2018-03-22T06:19:03.727Z,59.80
2018-03-22T06:21:31.600Z,61.80
2018-03-22T06:23:58.665Z,60.40
2018-03-22T06:26:25.683Z,61.40
2018-03-22T06:28:52.694Z,61.30
2018-03-22T06:31:19.750Z,58.10
2018-03-22T06:33:46.785Z,57.60
2018-03-22T06:36:14.984Z,57.30
2018-03-22T06:38:42.043Z,57.10
2018-03-22T06:41:09.061Z,56.40
2018-03-22T06:43:36.080Z,55.30
2018-03-22T06:46:03.139Z,55.30
2018-03-22T06:48:30.611Z,54.30
2018-03-22T06:50:57.709Z,64.70
2018-03-22T06:53:24.790Z,55.10
2018-03-22T06:55:51.822Z,55.30
2018-03-22T06:58:18.834Z,55.40
2018-03-22T07:00:45.879Z,55.50
2018-03-22T07:03:13.311Z,57.20
2018-03-22T07:05:40.329Z,54.70
2018-03-22T07:10:46.146Z,53.20
2018-03-22T07:13:13.282Z,53.00
2018-03-22T07:15:40.276Z,51.60
2018-03-22T07:18:07.294Z,51.20
2018-03-22T07:20:34.350Z,51.10
2018-03-22T07:23:01.443Z,48.60
2018-03-22T07:25:28.461Z,50.90
2018-03-22T07:27:55.457Z,49.20
2018-03-22T07:30:22.474Z,50.20
2018-03-22T07:32:49.526Z,50.90
2018-03-22T07:35:16.556Z,51.20
2018-03-22T07:37:44.626Z,51.70
2018-03-22T07:40:11.648Z,51.00
2018-03-22T07:42:38.724Z,51.10
2018-03-22T07:45:05.752Z,50.10
2018-03-22T07:47:32.767Z,49.60
2018-03-22T07:50:00.298Z,48.60
2018-03-22T07:52:27.309Z,47.10
2018-03-22T07:54:54.336Z,49.70
2018-03-22T07:57:22.839Z,46.40
2018-03-22T07:59:49.869Z,45.50
2018-03-22T08:02:16.883Z,49.70
2018-03-22T08:04:43.937Z,50.90
2018-03-22T08:07:10.961Z,48.60
2018-03-22T08:09:38.821Z,50.90
2018-03-22T08:12:06.273Z,48.70
2018-03-22T08:14:33.299Z,48.20
2018-03-22T08:17:00.330Z,43.50
2018-03-22T08:19:27.378Z,43.90
2018-03-22T08:21:54.467Z,44.40
2018-03-22T08:24:22.835Z,42.60
2018-03-22T08:29:22.739Z,44.40
2018-03-22T08:31:49.773Z,46.90
2018-03-22T08:36:55.302Z,43.70
2018-03-22T08:39:22.352Z,43.10
2018-03-22T08:41:49.363Z,42.70
2018-03-22T08:44:16.385Z,40.20
2018-03-22T08:46:43.416Z,41.30
2018-03-22T08:49:10.434Z,44.30
2018-03-22T08:51:37.465Z,44.50
2018-03-22T08:54:04.511Z,44.10
2018-03-22T08:56:31.555Z,43.10
2018-03-22T08:59:00.504Z,45.20
2018-03-22T09:01:26.847Z,45.40
2018-03-22T09:03:53.874Z,42.70
2018-03-22T09:06:20.899Z,43.20
2018-03-22T09:08:47.946Z,41.80
2018-03-22T09:11:16.337Z,43.20
2018-03-22T09:13:43.359Z,41.00
2018-03-22T09:16:10.624Z,40.30
2018-03-22T09:18:37.642Z,41.90
2018-03-22T09:21:05.423Z,37.40
2018-03-22T09:23:32.494Z,37.60
2018-03-22T09:25:59.520Z,37.10
2018-03-22T09:28:26.539Z,37.30
2018-03-22T09:30:53.599Z,37.00
2018-03-22T09:33:21.006Z,39.40
2018-03-22T09:35:48.028Z,35.60
2018-03-22T09:38:15.090Z,37.30
2018-03-22T09:40:42.105Z,35.90
2018-03-22T09:43:10.969Z,35.30
2018-03-22T09:45:36.215Z,35.90
2018-03-22T09:48:03.232Z,36.20
2018-03-22T09:50:30.262Z,35.90
2018-03-22T09:52:58.649Z,35.90
2018-03-22T09:55:24.348Z,33.90
2018-03-22T10:00:30.811Z,38.30
2018-03-22T10:05:24.938Z,33.70
2018-03-22T10:07:51.992Z,32.60
2018-03-22T10:10:19.017Z,36.10
2018-03-22T10:12:46.036Z,37.30
2018-03-22T10:15:13.108Z,32.70
2018-03-22T10:17:40.965Z,32.60
2018-03-22T10:20:08.010Z,35.90
2018-03-22T10:22:36.063Z,36.30
2018-03-22T10:27:30.224Z,36.30
2018-03-22T10:29:57.294Z,36.10
2018-03-22T10:32:24.865Z,33.90
2018-03-22T10:34:52.865Z,33.00
2018-03-22T10:37:19.945Z,30.80
2018-03-22T10:39:47.933Z,29.90
2018-03-22T10:42:14.958Z,31.70
2018-03-22T10:44:42.004Z,35.90
2018-03-22T10:47:09.977Z,33.00
2018-03-22T10:49:37.000Z,33.90
2018-03-22T10:52:04.059Z,34.90
2018-03-22T10:54:31.076Z,32.30
2018-03-22T10:56:58.091Z,31.00
2018-03-22T10:59:25.140Z,33.70
2018-03-22T11:06:46.452Z,29.50
2018-03-22T11:09:16.327Z,28.50
2018-03-22T11:11:43.346Z,32.10
2018-03-22T11:14:10.441Z,32.10
2018-03-22T11:16:38.855Z,30.60
2018-03-22T11:21:34.596Z,32.70
2018-03-22T11:24:01.609Z,31.90
2018-03-22T11:29:07.183Z,31.20
2018-03-22T11:31:34.205Z,28.20
2018-03-22T11:34:01.232Z,31.10
2018-03-22T11:36:28.292Z,30.70
2018-03-22T11:38:55.314Z,29.40
2018-03-22T11:41:22.376Z,31.70
2018-03-22T11:43:49.667Z,29.10
2018-03-22T11:46:16.687Z,29.80
2018-03-22T11:48:44.221Z,26.70
2018-03-22T11:51:12.226Z,29.00
2018-03-22T11:53:39.258Z,27.00
2018-03-22T11:56:06.286Z,26.90
2018-03-22T11:58:34.351Z,26.90
2018-03-22T12:01:01.384Z,27.80
2018-03-22T12:03:28.451Z,26.80
2018-03-22T12:05:55.522Z,28.30
2018-03-22T12:08:22.558Z,26.80
2018-03-22T12:10:49.575Z,27.80
2018-03-22T12:13:17.514Z,26.40
2018-03-22T12:15:44.536Z,26.60
2018-03-22T12:18:11.555Z,26.00
2018-03-22T12:20:38.658Z,28.90
2018-03-22T12:23:05.701Z,29.80
2018-03-22T12:28:00.291Z,28.60
2018-03-22T12:32:54.420Z,27.40
2018-03-22T12:35:21.500Z,24.60
2018-03-22T12:37:48.530Z,24.90
2018-03-22T12:40:15.543Z,26.60
2018-03-22T12:42:42.607Z,27.70
2018-03-22T12:45:09.633Z,28.80
2018-03-22T12:50:15.249Z,27.90
2018-03-22T12:52:42.257Z,26.30
2018-03-22T12:55:09.214Z,27.10
2018-03-22T12:57:36.290Z,26.60
2018-03-22T13:00:03.390Z,26.10
2018-03-22T13:02:31.077Z,25.20
2018-03-22T13:04:58.127Z,26.90
2018-03-22T13:07:25.156Z,25.50
2018-03-22T13:09:52.558Z,23.90
2018-03-22T13:12:19.601Z,26.30
2018-03-22T13:14:46.616Z,27.20
2018-03-22T13:17:13.637Z,26.90
2018-03-22T13:19:41.548Z,27.70
2018-03-22T13:22:09.391Z,29.70
2018-03-22T13:24:36.792Z,26.60
2018-03-22T13:27:04.681Z,26.80
2018-03-22T13:29:31.698Z,26.40
2018-03-22T13:31:58.710Z,27.10
2018-03-22T13:34:25.794Z,23.20
2018-03-22T13:36:52.827Z,24.00
2018-03-22T13:39:19.842Z,25.10
2018-03-22T13:41:46.890Z,24.80
2018-03-22T13:44:13.912Z,22.10
2018-03-22T13:46:40.935Z,22.50
2018-03-22T13:49:07.985Z,21.70
2018-03-22T13:51:35.016Z,21.70
2018-03-22T13:56:30.141Z,21.90
2018-03-22T14:01:38.609Z,21.20
2018-03-22T14:04:06.603Z,22.10
2018-03-22T14:06:33.625Z,22.50
2018-03-22T14:09:01.560Z,20.60
2018-03-22T14:11:28.578Z,21.20
2018-03-22T14:13:55.593Z,20.70
2018-03-22T14:16:22.694Z,21.00
2018-03-22T14:18:49.723Z,22.60
2018-03-22T14:21:16.748Z,22.30
2018-03-22T14:23:48.165Z,23.20
2018-03-22T14:26:15.244Z,22.30
2018-03-22T14:28:42.305Z,22.20
2018-03-22T14:31:09.377Z,22.40
2018-03-22T14:36:04.745Z,20.90
2018-03-22T14:38:31.769Z,21.70
2018-03-22T14:43:25.849Z,22.90
2018-03-22T14:45:52.925Z,22.20
2018-03-22T14:48:19.951Z,21.80
2018-03-22T14:50:46.963Z,21.50
2018-03-22T14:53:14.016Z,20.80
2018-03-22T14:55:41.992Z,20.10
2018-03-22T14:58:09.017Z,17.40
2018-03-22T15:00:36.132Z,14.90
2018-03-22T15:03:03.102Z,16.50
2018-03-22T15:05:30.117Z,16.80
2018-03-22T15:07:57.178Z,16.00
2018-03-22T15:10:24.268Z,15.90
2018-03-22T15:12:51.216Z,17.00
2018-03-22T15:15:19.073Z,17.10
2018-03-22T15:17:46.089Z,17.00
2018-03-22T15:22:51.636Z,19.20
2018-03-22T15:27:58.679Z,20.00
2018-03-22T15:30:25.691Z,19.90
2018-03-22T15:32:52.707Z,20.10
2018-03-22T15:35:19.783Z,20.00
2018-03-22T15:37:46.796Z,20.40
2018-03-22T15:40:13.829Z,22.40
2018-03-22T15:42:41.716Z,21.50
2018-03-22T15:45:08.730Z,21.40
2018-03-22T15:47:36.729Z,22.70
2018-03-22T15:50:03.757Z,21.90
2018-03-22T15:52:30.795Z,23.20
2018-03-22T15:54:57.813Z,24.40
2018-03-22T15:57:24.860Z,24.80
2018-03-22T15:59:52.643Z,24.70
2018-03-22T16:02:19.661Z,24.90
2018-03-22T16:04:46.707Z,25.00
2018-03-22T16:07:14.675Z,25.20
2018-03-22T16:09:41.676Z,24.70
2018-03-22T16:12:08.730Z,24.50
2018-03-22T16:14:35.753Z,25.50
2018-03-22T16:17:02.767Z,25.60
2018-03-22T16:19:29.876Z,26.20
2018-03-22T16:21:56.843Z,27.30
2018-03-22T16:26:51.010Z,28.60
2018-03-22T16:29:18.039Z,29.10
2018-03-22T16:31:45.053Z,30.30
2018-03-22T16:34:12.112Z,30.90
2018-03-22T16:36:39.144Z,32.00
2018-03-22T16:39:06.176Z,32.50
2018-03-22T16:41:33.230Z,32.70
2018-03-22T16:44:00.255Z,33.60
2018-03-22T16:48:57.731Z,34.70
2018-03-22T16:54:05.429Z,31.70
2018-03-22T16:56:32.351Z,32.00
2018-03-22T16:58:59.352Z,30.90
2018-03-22T17:01:26.619Z,33.60
2018-03-22T17:03:53.659Z,33.10
2018-03-22T17:06:20.676Z,32.50
2018-03-22T17:08:47.805Z,33.60
2018-03-22T17:11:14.814Z,34.20
2018-03-22T17:13:41.934Z,34.10
2018-03-22T17:16:08.903Z,34.10
2018-03-22T17:18:36.042Z,33.90
2018-03-22T17:21:03.057Z,34.00
2018-03-22T17:23:30.099Z,34.40
2018-03-22T17:25:57.939Z,34.60
2018-03-22T17:28:24.969Z,34.50
2018-03-22T17:30:52.017Z,35.20
2018-03-22T17:33:19.989Z,35.50
2018-03-22T17:35:47.016Z,35.10
2018-03-22T17:38:14.080Z,35.30
2018-03-22T17:40:41.089Z,34.50
2018-03-22T17:43:08.109Z,34.90
2018-03-22T17:50:33.383Z,35.60
2018-03-22T17:53:00.450Z,35.70
2018-03-22T17:55:27.456Z,35.80
2018-03-22T17:57:54.478Z,35.00
2018-03-22T18:00:21.549Z,34.80
2018-03-22T18:02:48.561Z,34.20
2018-03-22T18:05:15.571Z,34.30
2018-03-22T18:07:42.620Z,33.80
2018-03-22T18:10:09.638Z,34.50
2018-03-22T18:12:36.655Z,34.00
2018-03-22T18:17:44.357Z,34.70
2018-03-22T18:20:11.434Z,35.00
2018-03-22T18:22:38.450Z,35.20
2018-03-22T18:27:32.608Z,35.70
2018-03-22T18:30:00.668Z,36.00
2018-03-22T18:32:27.691Z,36.30
2018-03-22T18:34:54.746Z,35.90
2018-03-22T18:37:21.817Z,35.90
2018-03-22T18:39:48.835Z,35.50
2018-03-22T18:42:15.885Z,36.80
2018-03-22T18:44:42.895Z,35.80
2018-03-22T18:47:09.915Z,36.10
2018-03-22T18:49:36.957Z,36.00
2018-03-22T18:52:03.987Z,36.40
2018-03-22T18:54:30.999Z,36.50
2018-03-22T18:56:58.076Z,37.10
2018-03-22T18:59:25.085Z,36.30
2018-03-22T19:01:52.106Z,36.90
2018-03-22T19:04:19.153Z,37.70
2018-03-22T19:06:46.168Z,37.00
2018-03-22T19:09:14.114Z,36.30
2018-03-22T19:11:41.180Z,36.50
2018-03-22T19:14:08.166Z,36.80
2018-03-22T19:16:36.025Z,37.20
2018-03-22T19:19:03.093Z,36.30
2018-03-22T19:21:31.156Z,36.90
2018-03-22T19:23:58.391Z,38.20
2018-03-22T19:33:58.154Z,39.20
2018-03-22T19:36:25.183Z,39.90
2018-03-22T19:38:52.195Z,39.50
2018-03-22T19:41:19.243Z,38.80
2018-03-22T19:43:46.256Z,39.40
2018-03-22T19:46:13.295Z,40.70
2018-03-22T19:48:41.310Z,41.20
2018-03-22T19:51:08.333Z,40.70
2018-03-22T19:53:35.382Z,40.60
2018-03-22T19:56:02.483Z,40.30
2018-03-22T19:58:29.482Z,39.80
2018-03-22T20:00:56.525Z,38.90
2018-03-22T20:03:23.571Z,38.10
2018-03-22T20:05:50.580Z,38.70
2018-03-22T20:08:18.549Z,38.70
2018-03-22T20:10:45.608Z,37.60
2018-03-22T20:13:12.624Z,38.20
2018-03-22T20:15:39.629Z,38.80
2018-03-22T20:18:06.819Z,39.40
2018-03-22T20:20:33.839Z,40.70
2018-03-22T20:23:01.029Z,41.80
2018-03-22T20:25:28.140Z,41.90
2018-03-22T20:27:55.336Z,42.30
2018-03-22T20:30:22.355Z,42.60
2018-03-22T20:32:49.412Z,42.90
2018-03-22T20:35:16.417Z,44.10
2018-03-22T20:37:43.438Z,45.40
2018-03-22T20:40:13.686Z,46.10
2018-03-22T20:42:40.664Z,47.30
2018-03-22T20:47:34.824Z,47.20
2018-03-22T20:50:01.850Z,47.80
2018-03-22T20:52:28.857Z,48.10
2018-03-22T20:54:55.916Z,47.90
2018-03-22T21:00:01.421Z,49.10
2018-03-22T21:02:28.437Z,49.20
2018-03-22T21:04:56.400Z,49.90
2018-03-22T21:07:23.452Z,50.70
2018-03-22T21:09:50.508Z,51.40
2018-03-22T21:12:17.529Z,51.80
2018-03-22T21:14:44.564Z,52.00
2018-03-22T21:17:11.578Z,51.80
2018-03-22T21:19:38.606Z,51.60
2018-03-22T21:22:06.609Z,52.00
2018-03-22T21:24:33.631Z,52.10
2018-03-22T21:27:01.643Z,52.20
2018-03-22T21:34:22.882Z,52.70
2018-03-22T21:36:49.929Z,53.40
2018-03-22T21:39:16.952Z,54.50
2018-03-22T21:41:55.920Z,54.60
2018-03-22T21:44:22.931Z,55.00
2018-03-22T21:46:49.942Z,58.20
2018-03-22T21:49:16.988Z,63.00
2018-03-22T21:51:55.660Z,62.30
2018-03-22T21:54:22.702Z,62.50
2018-03-22T21:56:49.721Z,63.00
2018-03-22T21:59:16.742Z,64.60
2018-03-22T22:01:43.790Z,64.30
2018-03-22T22:04:10.793Z,64.20
2018-03-22T22:06:37.802Z,63.40
2018-03-22T22:09:05.782Z,64.70
2018-03-22T22:11:32.810Z,65.90
2018-03-22T22:13:59.822Z,67.90
2018-03-22T22:16:26.862Z,68.60
2018-03-22T22:18:53.873Z,70.80
2018-03-22T22:23:59.821Z,73.50
2018-03-22T22:26:26.831Z,74.30
2018-03-22T22:28:53.872Z,77.30
2018-03-22T22:31:20.990Z,81.90
2018-03-22T22:33:48.008Z,83.50
2018-03-22T22:36:15.019Z,84.20
2018-03-22T22:38:42.066Z,85.40
2018-03-22T22:41:09.080Z,85.30
2018-03-22T22:43:36.085Z,87.10
2018-03-22T22:46:03.126Z,88.00
2018-03-22T22:48:30.221Z,89.70
2018-03-22T22:50:57.230Z,90.60
2018-03-22T22:58:18.514Z,93.50
2018-03-22T23:00:45.564Z,93.70
2018-03-22T23:03:12.581Z,94.10
2018-03-22T23:05:39.585Z,94.80
2018-03-22T23:08:06.658Z,95.40
2018-03-22T23:13:00.797Z,95.90
2018-03-22T23:15:27.838Z,96.90
2018-03-22T23:17:54.850Z,97.00
2018-03-22T23:20:21.864Z,97.10
2018-03-22T23:22:48.943Z,96.70
2018-03-22T23:25:15.960Z,96.40
2018-03-22T23:27:42.976Z,97.20
2018-03-22T23:30:10.042Z,97.40
2018-03-22T23:32:37.055Z,97.40
2018-03-22T23:37:42.584Z,97.40
2018-03-22T23:42:36.716Z,97.60
2018-03-22T23:45:03.779Z,97.70
2018-03-22T23:47:30.786Z,97.90
2018-03-22T23:49:57.796Z,98.50
2018-03-22T23:52:24.839Z,99.10
2018-03-22T23:54:51.879Z,99.90
2018-03-22T23:57:18.882Z,99.90
2018-03-22T23:59:45.944Z,99.90
